Sunday, June 17, 2018, 10:08 PM EDT
Back to Local

KNYC, New York City Central Park

Location: New York, NY, United States Lat: 40.783
Local Time: 10:08 PM EDT ( 2:08 GMT) Lon: -73.967
Time Zone: US/Eastern Elev: 157 ft

Show me the last for .
Show Coded

Time T Td Feel RH Dir Speed Gust Alt SLP Vis Weather Sky Remarks
2018-06-17 21:51 78 56 79 46 - Calm - 30.09 30.06 10 CLR None
2018-06-17 20:51 79 55 79 43 - Calm - 30.08 30.04 10 CLR None
2018-06-17 19:51 80 54 80 40 - Calm - 30.08 30.05 10 CLR 6-hr Min Temp (8pm): 80.1°F
6-hr Max Temp (8pm): 91.0°F
2018-06-17 18:51 81 53 - 38 Variable 3 - 30.08 30.05 10 CLR None
2018-06-17 17:51 82 52 - 35 Variable 6 - 30.09 30.06 10 CLR None
2018-06-17 16:51 84 54 - 35 Variable 3 - 30.08 30.05 10 CLR None
2018-06-17 15:51 88 51 - 28 Variable 3 - 30.07 30.04 10 CLR None
2018-06-17 14:51 90 49 - 24 Variable 3 - 30.07 30.04 10 CLR None
2018-06-17 13:51 89 49 - 25 Variable 3 - 30.08 30.05 10 CLR 6-hr Min Temp (2pm): 72.0°F
6-hr Max Temp (2pm): 90.0°F
2018-06-17 12:51 89 47 - 23 - Calm - 30.10 30.06 10 CLR None
2018-06-17 11:51 86 48 - 26 - Calm - 30.12 30.09 10 CLR None
2018-06-17 10:51 82 52 - 35 - Calm - 30.12 30.09 10 CLR None
2018-06-17 09:51 79 54 79 42 - Calm - 30.11 30.08 10 CLR None
2018-06-17 08:51 75 54 77 47 - Calm - 30.11 30.08 10 CLR None
2018-06-17 07:51 72 54 76 53 - Calm - 30.11 30.08 10 CLR 6-hr Min Temp (8am): 66.0°F
6-hr Max Temp (8am): 72.0°F
2018-06-17 06:51 68 56 - 65 - Calm - 30.09 30.06 10 CLR None
2018-06-17 05:51 67 55 - 65 - Calm - 30.07 30.04 10 CLR None
2018-06-17 04:51 68 56 - 65 290° 3 - 30.06 30.03 10 CLR None
2018-06-17 03:51 69 55 - 60 280° 3 - 30.07 30.03 10 CLR None
2018-06-17 02:51 71 54 76 54 - Calm - 30.05 30.02 10 CLR None
2018-06-17 01:51 71 54 76 54 260° 3 - 30.05 30.02 10 CLR 6-hr Min Temp (2am): 71.1°F
6-hr Max Temp (2am): 78.1°F
2018-06-17 00:51 71 52 76 50 280° 3 - 30.07 30.03 10 CLR 24-hr Min Temp (1am): 64.0°F
24-hr Max Temp (1am): 84.9°F
2018-06-16 23:51 73 52 76 47 250° 5 - 30.06 30.03 10 CLR None
2018-06-16 22:51 73 53 76 49 - Calm - 30.05 30.01 10 CLR None

Support USWX by starting your Amazon purchase here.